Weather at Deep Water Cay Airport

Public forecast

Using degrees Celsius for public forecast. Weather courtesy of forecast.io.

Closest aviation weather report (METAR) to Deep Water Cay Airport

Closest report is Grand Bahama International Airport, 41.8 nm (77.4 km) W.

2024/05/21 00:00 (retrieved 32 minutes ago)

MYGF 210000Z 01008KT 9999 SCT022 SCT220 28/23 A2986

Closest aviation forecast (TAF) to Deep Water Cay Airport

Closest forecast is Grand Bahama International Airport, 41.8 nm (77.4 km) W.

2024/05/20 18:51 (retrieved 6 hours ago)

TAF MYGF 201735Z 2018/2118 25006KT 9999 SCT025 FM210100 25005KT 9999 VCTS FEW018CB SCT020